createdAt,value
2022-11-27T00:00:23.145Z,2.31
2022-11-27T00:02:54.861Z,2.45
2022-11-27T00:05:26.264Z,2.47
2022-11-27T00:07:57.720Z,2.43
2022-11-27T00:10:28.998Z,2.34
2022-11-27T00:13:00.250Z,2.26
2022-11-27T00:15:31.934Z,2.30
2022-11-27T00:18:03.583Z,2.28
2022-11-27T00:20:35.569Z,2.27
2022-11-27T00:23:07.292Z,2.37
2022-11-27T00:25:39.143Z,2.39
2022-11-27T00:28:10.732Z,2.35
2022-11-27T00:30:43.123Z,2.41
2022-11-27T00:33:14.761Z,2.51
2022-11-27T00:35:46.484Z,2.54
2022-11-27T00:38:23.286Z,2.56
2022-11-27T00:40:59.914Z,2.61
2022-11-27T00:43:44.387Z,2.46
2022-11-27T00:46:17.782Z,2.41
2022-11-27T00:48:50.115Z,2.39
2022-11-27T00:51:23.936Z,2.44
2022-11-27T00:53:56.317Z,2.42
2022-11-27T00:56:30.759Z,2.45
2022-11-27T00:59:02.413Z,2.50
2022-11-27T01:01:36.213Z,2.61
2022-11-27T01:04:10.160Z,2.70
2022-11-27T01:06:42.126Z,2.76
2022-11-27T01:09:14.735Z,2.71
2022-11-27T01:11:46.876Z,2.60
2022-11-27T01:14:19.962Z,2.48
2022-11-27T01:16:56.102Z,2.50
2022-11-27T01:19:31.824Z,2.49
2022-11-27T01:22:08.792Z,2.50
2022-11-27T01:24:48.309Z,2.62
2022-11-27T01:27:19.967Z,2.70
2022-11-27T01:29:51.630Z,2.68
2022-11-27T01:32:23.136Z,2.68
2022-11-27T01:34:54.984Z,2.60
2022-11-27T01:37:26.423Z,2.50
2022-11-27T01:40:05.571Z,2.55
2022-11-27T01:42:37.232Z,2.57
2022-11-27T01:45:15.644Z,2.46
2022-11-27T01:47:54.887Z,2.55
2022-11-27T01:50:30.894Z,2.58
2022-11-27T01:53:07.399Z,2.64
2022-11-27T01:55:42.703Z,2.67
2022-11-27T01:58:19.232Z,2.73
2022-11-27T02:00:50.469Z,2.68
2022-11-27T02:03:22.459Z,2.59
2022-11-27T02:05:53.799Z,2.56
2022-11-27T02:08:25.710Z,2.39
2022-11-27T02:11:03.295Z,2.38
2022-11-27T02:13:40.515Z,2.40
2022-11-27T02:16:19.060Z,2.32
2022-11-27T02:18:58.688Z,2.33
2022-11-27T02:21:40.858Z,2.46
2022-11-27T02:24:47.821Z,2.56
2022-11-27T02:27:49.555Z,2.70
2022-11-27T02:30:21.450Z,2.67
2022-11-27T02:32:57.246Z,2.66
2022-11-27T02:39:47.421Z,2.81
2022-11-27T02:42:22.832Z,2.86
2022-11-27T02:45:00.327Z,2.80
2022-11-27T02:47:32.608Z,2.71
2022-11-27T02:50:06.820Z,2.59
2022-11-27T02:52:40.848Z,2.49
2022-11-27T02:55:17.737Z,2.46
2022-11-27T02:57:51.399Z,2.50
2022-11-27T03:00:23.914Z,2.59
2022-11-27T03:03:01.956Z,2.67
2022-11-27T03:05:38.335Z,2.77
2022-11-27T03:08:15.591Z,2.80
2022-11-27T03:11:02.597Z,2.83
2022-11-27T03:13:38.655Z,2.79
2022-11-27T03:16:17.790Z,2.84
2022-11-27T03:18:59.459Z,2.87
2022-11-27T03:21:36.412Z,2.81
2022-11-27T03:24:09.309Z,2.84
2022-11-27T03:26:42.215Z,2.78
2022-11-27T03:29:18.476Z,2.70
2022-11-27T03:31:51.213Z,2.64
2022-11-27T03:34:27.073Z,2.67
2022-11-27T03:37:00.465Z,2.66
2022-11-27T03:39:37.270Z,2.76
2022-11-27T03:42:19.607Z,2.89
2022-11-27T03:44:59.766Z,2.94
2022-11-27T03:47:43.437Z,2.94
2022-11-27T03:50:24.110Z,2.96
2022-11-27T03:53:06.619Z,2.94
2022-11-27T03:55:43.997Z,2.97
2022-11-27T03:58:22.372Z,2.87
2022-11-27T04:00:55.713Z,2.96
2022-11-27T04:03:29.932Z,3.09
2022-11-27T04:06:01.668Z,3.18
2022-11-27T04:08:33.076Z,3.08
2022-11-27T04:11:04.483Z,2.98
2022-11-27T04:13:36.071Z,3.01
2022-11-27T04:16:08.410Z,3.13
2022-11-27T04:18:39.964Z,3.27
2022-11-27T04:21:12.364Z,3.37
2022-11-27T04:23:44.050Z,3.42
2022-11-27T04:26:15.463Z,3.42
2022-11-27T04:28:57.435Z,3.20
2022-11-27T04:31:37.765Z,3.14
2022-11-27T04:34:15.748Z,3.21
2022-11-27T04:36:47.335Z,3.23
2022-11-27T04:39:19.182Z,3.26
2022-11-27T04:41:50.494Z,3.14
2022-11-27T04:44:23.085Z,3.07
2022-11-27T04:46:54.614Z,3.06
2022-11-27T04:49:26.246Z,3.15
2022-11-27T04:51:57.627Z,3.23
2022-11-27T04:54:29.493Z,3.23
2022-11-27T04:57:00.842Z,3.29
2022-11-27T04:59:32.321Z,3.36
2022-11-27T05:02:03.707Z,3.44
2022-11-27T05:04:35.430Z,3.54
2022-11-27T05:07:06.979Z,3.61
2022-11-27T05:09:38.357Z,3.59
2022-11-27T05:12:09.995Z,3.66
2022-11-27T05:14:41.715Z,3.69
2022-11-27T05:17:13.688Z,3.68
2022-11-27T05:19:45.317Z,3.73
2022-11-27T05:22:16.738Z,3.84
2022-11-27T05:24:48.014Z,3.87
2022-11-27T05:27:19.368Z,3.83
2022-11-27T05:29:50.880Z,3.84
2022-11-27T05:32:22.300Z,3.83
2022-11-27T05:34:53.670Z,3.82
2022-11-27T05:37:25.129Z,3.78
2022-11-27T05:39:56.466Z,3.72
2022-11-27T05:42:27.890Z,3.67
2022-11-27T05:44:59.332Z,3.65
2022-11-27T05:47:30.740Z,3.70
2022-11-27T05:50:02.153Z,3.62
2022-11-27T05:52:33.476Z,3.62
2022-11-27T05:55:04.760Z,3.62
2022-11-27T05:57:36.233Z,3.68
2022-11-27T06:00:09.705Z,3.72
2022-11-27T06:02:41.320Z,3.63
2022-11-27T06:05:13.358Z,3.53
2022-11-27T06:07:44.967Z,3.41
2022-11-27T06:10:16.833Z,3.31
2022-11-27T06:12:48.246Z,3.16
2022-11-27T06:15:19.810Z,3.08
2022-11-27T06:17:52.061Z,3.09
2022-11-27T06:20:24.289Z,3.09
2022-11-27T06:22:55.701Z,2.98
2022-11-27T06:25:27.707Z,2.86
2022-11-27T06:27:59.254Z,2.86
2022-11-27T06:30:30.587Z,2.92
2022-11-27T06:33:01.947Z,2.89
2022-11-27T06:35:33.462Z,2.92
2022-11-27T06:38:04.831Z,3.04
2022-11-27T06:40:36.113Z,3.13
2022-11-27T06:43:07.555Z,3.21
2022-11-27T06:45:38.893Z,3.28
2022-11-27T06:48:10.425Z,3.26
2022-11-27T06:50:41.725Z,3.28
2022-11-27T06:53:13.127Z,3.28
2022-11-27T06:55:44.677Z,3.26
2022-11-27T06:58:17.183Z,3.29
2022-11-27T07:00:48.657Z,3.25
2022-11-27T07:03:20.073Z,3.30
2022-11-27T07:05:51.357Z,3.44
2022-11-27T07:08:23.680Z,3.32
2022-11-27T07:10:55.038Z,3.15
2022-11-27T07:13:26.428Z,3.02
2022-11-27T07:16:00.929Z,2.99
2022-11-27T07:18:32.693Z,2.96
2022-11-27T07:21:04.320Z,3.03
2022-11-27T07:23:36.367Z,3.09
2022-11-27T07:26:11.060Z,3.15
2022-11-27T07:28:44.673Z,3.10
2022-11-27T07:31:18.295Z,3.03
2022-11-27T07:33:52.186Z,2.96
2022-11-27T07:36:25.215Z,3.06
2022-11-27T07:38:56.700Z,3.09
2022-11-27T07:41:33.493Z,3.09
2022-11-27T07:44:05.400Z,3.18
2022-11-27T07:46:36.888Z,3.36
2022-11-27T07:49:08.460Z,3.47
2022-11-27T07:51:40.078Z,3.58
2022-11-27T07:54:11.527Z,3.63
2022-11-27T07:56:42.905Z,3.67
2022-11-27T07:59:14.286Z,3.80
2022-11-27T08:01:46.510Z,3.71
2022-11-27T08:04:18.148Z,3.59
2022-11-27T08:06:52.033Z,3.62
2022-11-27T08:09:23.371Z,3.74
2022-11-27T08:11:54.726Z,3.93
2022-11-27T08:14:26.162Z,3.97
2022-11-27T08:16:57.802Z,3.84
2022-11-27T08:19:29.625Z,3.94
2022-11-27T08:22:01.066Z,4.09
2022-11-27T08:24:32.630Z,3.98
2022-11-27T08:27:04.058Z,3.95
2022-11-27T08:29:35.493Z,3.99
2022-11-27T08:32:07.778Z,4.00
2022-11-27T08:34:39.559Z,4.02
2022-11-27T08:37:11.551Z,4.16
2022-11-27T08:39:42.904Z,4.30
2022-11-27T08:42:14.459Z,4.28
2022-11-27T08:44:45.910Z,4.30
2022-11-27T08:47:17.247Z,4.35
2022-11-27T08:49:48.784Z,4.36
2022-11-27T08:52:20.979Z,4.42
2022-11-27T08:54:57.308Z,4.37
2022-11-27T08:57:29.717Z,4.42
2022-11-27T09:00:01.257Z,4.52
2022-11-27T09:02:32.776Z,4.59
2022-11-27T09:05:06.065Z,4.54
2022-11-27T09:07:37.601Z,4.57
2022-11-27T09:10:10.958Z,4.62
2022-11-27T09:12:43.680Z,4.50
2022-11-27T09:15:15.754Z,4.52
2022-11-27T09:17:47.164Z,4.62
2022-11-27T09:20:18.639Z,4.47
2022-11-27T09:22:50.022Z,4.51
2022-11-27T09:25:21.596Z,4.62
2022-11-27T09:27:53.231Z,4.73
2022-11-27T09:30:24.840Z,4.82
2022-11-27T09:32:56.867Z,4.81
2022-11-27T09:35:28.974Z,4.73
2022-11-27T09:38:00.775Z,4.80
2022-11-27T09:40:32.275Z,4.79
2022-11-27T09:43:09.241Z,4.78
2022-11-27T09:45:46.352Z,4.75
2022-11-27T09:48:24.620Z,4.88
2022-11-27T09:50:57.804Z,4.96
2022-11-27T09:53:34.626Z,4.92
2022-11-27T09:56:13.055Z,4.80
2022-11-27T09:58:47.686Z,4.79
2022-11-27T10:01:27.401Z,4.81
2022-11-27T10:04:05.285Z,4.87
2022-11-27T10:06:48.635Z,5.03
2022-11-27T10:09:25.994Z,5.13
2022-11-27T10:12:05.338Z,5.04
2022-11-27T10:14:48.897Z,5.10
2022-11-27T10:17:25.923Z,5.17
2022-11-27T10:20:05.039Z,5.20
2022-11-27T10:22:47.456Z,5.26
2022-11-27T10:25:22.200Z,5.23
2022-11-27T10:28:01.849Z,5.28
2022-11-27T10:30:38.995Z,5.38
2022-11-27T10:33:19.105Z,5.37
2022-11-27T10:35:52.056Z,5.25
2022-11-27T10:38:26.971Z,5.21
2022-11-27T10:41:18.647Z,5.24
2022-11-27T10:44:10.333Z,5.26
2022-11-27T10:46:43.045Z,5.28
2022-11-27T10:49:14.609Z,5.21
2022-11-27T10:51:46.004Z,5.27
2022-11-27T10:54:28.487Z,5.34
2022-11-27T10:57:16.520Z,5.29
2022-11-27T10:59:51.948Z,5.34
2022-11-27T11:02:35.631Z,5.50
2022-11-27T11:08:21.874Z,5.53
2022-11-27T11:10:59.940Z,5.62
2022-11-27T11:13:33.683Z,5.68
2022-11-27T11:16:12.140Z,5.67
2022-11-27T11:18:49.439Z,5.60
2022-11-27T11:21:27.185Z,5.47
2022-11-27T11:24:02.849Z,5.27
2022-11-27T11:26:37.101Z,5.20
2022-11-27T11:29:30.645Z,5.19
2022-11-27T11:32:08.609Z,5.19
2022-11-27T11:34:46.831Z,5.19
2022-11-27T11:37:27.154Z,5.10
2022-11-27T11:40:01.581Z,5.20
2022-11-27T11:42:36.318Z,5.13
2022-11-27T11:45:19.240Z,5.19
2022-11-27T11:47:52.639Z,5.23
2022-11-27T11:50:36.095Z,5.25
2022-11-27T11:53:15.931Z,5.24
2022-11-27T11:56:00.935Z,5.08
2022-11-27T11:58:48.775Z,5.05
2022-11-27T12:01:38.496Z,5.11
2022-11-27T12:04:28.974Z,5.18
2022-11-27T12:07:11.511Z,5.26
2022-11-27T12:09:52.502Z,5.27
2022-11-27T12:12:38.529Z,5.36
2022-11-27T12:15:23.901Z,5.45
2022-11-27T12:18:02.416Z,5.62
2022-11-27T12:20:59.109Z,5.62
2022-11-27T12:24:00.591Z,5.62
2022-11-27T12:26:44.621Z,5.64
2022-11-27T12:29:40.898Z,5.74
2022-11-27T12:32:24.215Z,5.81
2022-11-27T12:35:05.635Z,5.79
2022-11-27T12:37:49.967Z,5.87
2022-11-27T12:40:34.447Z,5.85
2022-11-27T12:43:18.822Z,5.83
2022-11-27T12:45:55.502Z,5.86
2022-11-27T12:48:32.607Z,5.93
2022-11-27T12:51:09.531Z,5.97
2022-11-27T12:53:47.532Z,5.97
2022-11-27T12:56:24.855Z,5.90
2022-11-27T12:59:03.086Z,5.88
2022-11-27T13:01:40.120Z,5.89
2022-11-27T13:04:24.003Z,5.84
2022-11-27T13:07:04.285Z,5.95
2022-11-27T13:09:44.626Z,6.04
2022-11-27T13:12:24.722Z,6.09
2022-11-27T13:15:02.065Z,6.16
2022-11-27T13:17:41.156Z,6.14
2022-11-27T13:20:19.695Z,6.15
2022-11-27T13:22:52.687Z,6.11
2022-11-27T13:25:25.087Z,6.10
2022-11-27T13:27:57.997Z,6.00
2022-11-27T13:30:33.580Z,6.06
2022-11-27T13:33:07.532Z,6.17
2022-11-27T13:35:43.693Z,6.22
2022-11-27T13:38:22.036Z,6.28
2022-11-27T13:40:56.735Z,6.29
2022-11-27T13:43:32.730Z,6.16
2022-11-27T13:46:07.550Z,6.09
2022-11-27T13:48:42.902Z,6.07
2022-11-27T13:51:24.061Z,6.07
2022-11-27T13:53:55.892Z,6.12
2022-11-27T13:56:34.310Z,6.10
2022-11-27T13:59:16.371Z,6.09
2022-11-27T14:02:02.230Z,6.11
2022-11-27T14:04:35.824Z,6.18
2022-11-27T14:07:12.140Z,6.19
2022-11-27T14:09:47.145Z,6.09
2022-11-27T14:12:22.736Z,5.95
2022-11-27T14:15:12.345Z,5.87
2022-11-27T14:17:47.578Z,5.91
2022-11-27T14:20:51.620Z,5.89
2022-11-27T14:23:36.549Z,5.96
2022-11-27T14:26:22.472Z,6.01
2022-11-27T14:28:57.718Z,5.91
2022-11-27T14:31:39.675Z,5.96
2022-11-27T14:34:28.459Z,5.95
2022-11-27T14:37:01.698Z,5.83
2022-11-27T14:39:35.815Z,5.73
2022-11-27T14:42:09.477Z,5.75
2022-11-27T14:44:41.356Z,5.79
2022-11-27T14:47:25.537Z,5.74
2022-11-27T14:49:59.825Z,5.59
2022-11-27T14:52:31.808Z,5.58
2022-11-27T14:55:06.218Z,5.63
2022-11-27T14:57:41.116Z,5.65
2022-11-27T15:00:24.504Z,5.58
2022-11-27T15:02:57.402Z,5.43
2022-11-27T15:05:40.041Z,5.40
2022-11-27T15:08:23.350Z,5.33
2022-11-27T15:11:01.168Z,5.27
2022-11-27T15:13:43.315Z,5.22
2022-11-27T15:16:22.020Z,5.16
2022-11-27T15:18:58.231Z,5.25
2022-11-27T15:21:33.234Z,5.23
2022-11-27T15:24:05.219Z,5.22
2022-11-27T15:26:43.971Z,5.17
2022-11-27T15:29:39.057Z,5.08
2022-11-27T15:32:26.354Z,5.12
2022-11-27T15:34:58.929Z,5.12
2022-11-27T15:37:34.733Z,5.12
2022-11-27T15:40:23.347Z,5.08
2022-11-27T15:42:55.210Z,5.08
2022-11-27T15:45:32.087Z,5.05
2022-11-27T15:48:04.950Z,4.92
2022-11-27T15:50:36.685Z,4.85
2022-11-27T15:53:08.386Z,4.80
2022-11-27T15:55:40.718Z,4.82
2022-11-27T15:58:12.260Z,4.95
2022-11-27T16:00:44.228Z,4.98
2022-11-27T16:03:16.415Z,4.83
2022-11-27T16:05:48.235Z,4.75
2022-11-27T16:08:20.263Z,4.65
2022-11-27T16:10:52.291Z,4.67
2022-11-27T16:13:23.966Z,4.68
2022-11-27T16:15:56.023Z,4.67
2022-11-27T16:18:27.632Z,4.61
2022-11-27T16:21:04.376Z,4.58
2022-11-27T16:23:36.555Z,4.65
2022-11-27T16:26:09.249Z,4.73
2022-11-27T16:28:41.564Z,4.73
2022-11-27T16:31:15.499Z,4.79
2022-11-27T16:33:47.773Z,4.82
2022-11-27T16:36:21.312Z,4.84
2022-11-27T16:38:54.982Z,4.89
2022-11-27T16:41:28.072Z,4.96
2022-11-27T16:44:00.554Z,5.01
2022-11-27T16:46:34.697Z,5.06
2022-11-27T16:49:08.127Z,5.15
2022-11-27T16:51:42.557Z,5.24
2022-11-27T16:54:15.903Z,5.30
2022-11-27T16:56:47.997Z,5.39
2022-11-27T16:59:20.123Z,5.40
2022-11-27T17:01:52.549Z,5.25
2022-11-27T17:04:25.158Z,5.22
2022-11-27T17:06:57.077Z,5.29
2022-11-27T17:09:30.047Z,5.30
2022-11-27T17:12:03.577Z,5.28
2022-11-27T17:14:40.241Z,5.24
2022-11-27T17:17:12.058Z,5.22
2022-11-27T17:19:48.377Z,5.21
2022-11-27T17:22:23.223Z,5.18
2022-11-27T17:24:56.534Z,5.07
2022-11-27T17:27:31.800Z,4.99
2022-11-27T17:30:03.705Z,4.97
2022-11-27T17:32:35.888Z,5.08
2022-11-27T17:35:08.390Z,5.07
2022-11-27T17:37:40.447Z,5.01
2022-11-27T17:40:14.865Z,5.04
2022-11-27T17:42:46.532Z,5.07
2022-11-27T17:45:18.805Z,5.11
2022-11-27T17:47:50.696Z,5.15
2022-11-27T17:50:22.630Z,5.15
2022-11-27T17:52:58.371Z,5.05
2022-11-27T17:55:30.317Z,4.99
2022-11-27T17:58:02.505Z,4.99
2022-11-27T18:00:36.771Z,4.91
2022-11-27T18:03:09.259Z,4.92
2022-11-27T18:05:44.152Z,4.88
2022-11-27T18:08:16.119Z,4.78
2022-11-27T18:10:50.354Z,4.82
2022-11-27T18:13:22.564Z,4.90
2022-11-27T18:15:55.793Z,4.91
2022-11-27T18:18:27.847Z,4.88
2022-11-27T18:21:00.468Z,4.84
2022-11-27T18:23:34.463Z,4.83
2022-11-27T18:26:12.805Z,4.80
2022-11-27T18:28:45.532Z,4.78
2022-11-27T18:31:20.105Z,4.81
2022-11-27T18:33:52.397Z,4.85
2022-11-27T18:36:24.502Z,4.85
2022-11-27T18:38:58.337Z,4.81
2022-11-27T18:41:30.320Z,4.87
2022-11-27T18:44:04.049Z,4.86
2022-11-27T18:46:36.294Z,4.90
2022-11-27T18:49:07.935Z,4.87
2022-11-27T18:51:39.988Z,4.81
2022-11-27T18:54:11.697Z,4.77
2022-11-27T18:56:43.529Z,4.81
2022-11-27T18:59:15.967Z,4.79
2022-11-27T19:01:49.705Z,4.71
2022-11-27T19:04:21.373Z,4.77
2022-11-27T19:06:54.886Z,4.75
2022-11-27T19:09:26.956Z,4.73
2022-11-27T19:11:59.353Z,4.70
2022-11-27T19:14:32.631Z,4.67
2022-11-27T19:17:05.253Z,4.63
2022-11-27T19:19:56.943Z,4.61
2022-11-27T19:22:29.297Z,4.48
2022-11-27T19:25:02.467Z,4.54
2022-11-27T19:27:35.359Z,4.60
2022-11-27T19:30:09.249Z,4.62
2022-11-27T19:32:50.425Z,4.66
2022-11-27T19:35:25.868Z,4.66
2022-11-27T19:37:57.895Z,4.67
2022-11-27T19:40:32.973Z,4.58
2022-11-27T19:43:04.319Z,4.48
2022-11-27T19:45:40.315Z,4.41
2022-11-27T19:48:12.534Z,4.47
2022-11-27T19:50:46.123Z,4.54
2022-11-27T19:53:18.945Z,4.54
2022-11-27T19:55:58.166Z,4.57
2022-11-27T19:58:31.272Z,4.57
2022-11-27T20:01:11.238Z,4.50
2022-11-27T20:03:44.089Z,4.39
2022-11-27T20:06:18.854Z,4.35
2022-11-27T20:08:50.060Z,4.31
2022-11-27T20:11:34.146Z,4.36
2022-11-27T20:14:07.832Z,4.40
2022-11-27T20:16:40.421Z,4.45
2022-11-27T20:19:13.893Z,4.49
2022-11-27T20:21:46.135Z,4.45
2022-11-27T20:24:27.100Z,4.40
2022-11-27T20:26:59.654Z,4.36
2022-11-27T20:29:32.155Z,4.43
2022-11-27T20:32:04.689Z,4.44
2022-11-27T20:34:42.561Z,4.38
2022-11-27T20:37:24.219Z,4.47
2022-11-27T20:40:08.626Z,4.56
2022-11-27T20:42:45.414Z,4.71
2022-11-27T20:45:26.432Z,4.82
2022-11-27T20:47:58.423Z,4.77
2022-11-27T20:50:30.385Z,4.66
2022-11-27T20:53:11.063Z,4.62
2022-11-27T20:55:51.508Z,4.66
2022-11-27T20:58:23.876Z,4.68
2022-11-27T21:00:56.331Z,4.62
2022-11-27T21:03:37.464Z,4.50
2022-11-27T21:06:09.492Z,4.53
2022-11-27T21:08:50.728Z,4.53
2022-11-27T21:11:32.708Z,4.65
2022-11-27T21:14:06.878Z,4.69
2022-11-27T21:16:48.784Z,4.76
2022-11-27T21:19:32.845Z,4.76
2022-11-27T21:22:11.102Z,4.88
2022-11-27T21:24:43.089Z,4.91
2022-11-27T21:27:18.971Z,4.85
2022-11-27T21:29:50.494Z,4.88
2022-11-27T21:32:22.967Z,4.84
2022-11-27T21:34:54.362Z,4.80
2022-11-27T21:37:25.993Z,4.77
2022-11-27T21:39:58.390Z,4.68
2022-11-27T21:42:33.073Z,4.67
2022-11-27T21:45:04.782Z,4.76
2022-11-27T21:47:37.960Z,4.82
2022-11-27T21:50:12.087Z,4.69
2022-11-27T21:52:44.595Z,4.58
2022-11-27T21:55:16.050Z,4.51
2022-11-27T21:57:47.612Z,4.54
2022-11-27T22:00:22.373Z,4.50
2022-11-27T22:02:52.116Z,4.55
2022-11-27T22:05:23.944Z,4.66
2022-11-27T22:07:56.423Z,4.57
2022-11-27T22:10:27.881Z,4.39
2022-11-27T22:12:59.352Z,4.18
2022-11-27T22:15:32.363Z,4.18
2022-11-27T22:18:05.464Z,4.24
2022-11-27T22:20:37.649Z,4.27
2022-11-27T22:23:09.045Z,4.26
2022-11-27T22:25:40.568Z,4.16
2022-11-27T22:28:15.253Z,4.12
2022-11-27T22:30:49.081Z,4.20
2022-11-27T22:33:22.806Z,4.25
2022-11-27T22:35:54.304Z,4.25
2022-11-27T22:38:27.596Z,4.24
2022-11-27T22:41:03.813Z,4.37
2022-11-27T22:43:36.780Z,4.46
2022-11-27T22:46:10.425Z,4.50
2022-11-27T22:48:48.201Z,4.48
2022-11-27T22:51:19.634Z,4.46
2022-11-27T22:53:51.076Z,4.40
2022-11-27T22:56:22.515Z,4.34
2022-11-27T22:59:11.419Z,4.39
2022-11-27T23:01:45.233Z,4.34
2022-11-27T23:04:16.829Z,4.20
2022-11-27T23:06:48.815Z,4.06
2022-11-27T23:09:20.916Z,4.19
2022-11-27T23:11:53.002Z,4.13
2022-11-27T23:14:24.417Z,4.12
2022-11-27T23:16:56.410Z,4.02
2022-11-27T23:19:27.832Z,4.06
2022-11-27T23:21:59.330Z,4.00
2022-11-27T23:24:31.162Z,3.89
2022-11-27T23:27:02.680Z,3.78
2022-11-27T23:29:34.173Z,3.75
2022-11-27T23:32:06.136Z,3.81
2022-11-27T23:34:37.719Z,3.85
2022-11-27T23:37:09.557Z,3.96
2022-11-27T23:39:41.271Z,3.85
2022-11-27T23:42:12.773Z,3.86
2022-11-27T23:44:45.001Z,3.94
2022-11-27T23:47:16.410Z,3.93
2022-11-27T23:49:48.142Z,3.97
2022-11-27T23:52:19.579Z,3.98
2022-11-27T23:54:51.505Z,4.12
2022-11-27T23:57:23.080Z,4.18
2022-11-27T23:59:54.832Z,4.20
